createdAt,value
2018-05-07T00:01:34.752Z,2.80
2018-05-07T00:04:02.369Z,3.00
2018-05-07T00:06:29.890Z,2.90
2018-05-07T00:08:57.521Z,2.90
2018-05-07T00:11:25.032Z,3.00
2018-05-07T00:13:52.615Z,2.80
2018-05-07T00:16:20.165Z,2.90
2018-05-07T00:18:47.716Z,2.77
2018-05-07T00:21:15.271Z,3.10
2018-05-07T00:23:42.847Z,3.67
2018-05-07T00:26:10.424Z,3.20
2018-05-07T00:28:37.987Z,3.00
2018-05-07T00:31:05.557Z,2.57
2018-05-07T00:33:33.104Z,2.77
2018-05-07T00:36:00.655Z,2.67
2018-05-07T00:38:28.999Z,3.13
2018-05-07T00:40:57.326Z,2.80
2018-05-07T00:43:24.881Z,3.37
2018-05-07T00:45:52.442Z,3.40
2018-05-07T00:48:19.997Z,3.50
2018-05-07T00:50:47.576Z,3.23
2018-05-07T00:53:15.131Z,3.30
2018-05-07T00:55:42.688Z,2.80
2018-05-07T00:58:10.239Z,2.80
2018-05-07T01:00:37.798Z,3.00
2018-05-07T01:03:05.371Z,3.00
2018-05-07T01:05:32.919Z,3.00
2018-05-07T01:08:00.472Z,3.57
2018-05-07T01:10:28.020Z,3.37
2018-05-07T01:12:55.567Z,3.30
2018-05-07T01:15:23.147Z,2.70
2018-05-07T01:17:50.937Z,3.20
2018-05-07T01:20:18.496Z,2.90
2018-05-07T01:22:46.053Z,3.07
2018-05-07T01:25:14.377Z,2.93
2018-05-07T01:27:41.952Z,2.60
2018-05-07T01:30:09.513Z,3.00
2018-05-07T01:32:37.064Z,3.67
2018-05-07T01:35:04.613Z,2.90
2018-05-07T01:37:32.162Z,3.63
2018-05-07T01:39:59.744Z,3.40
2018-05-07T01:42:27.300Z,3.03
2018-05-07T01:44:54.849Z,3.20
2018-05-07T01:47:22.400Z,3.33
2018-05-07T01:49:49.953Z,3.03
2018-05-07T01:52:17.533Z,3.40
2018-05-07T01:54:45.085Z,3.17
2018-05-07T01:57:12.632Z,3.70
2018-05-07T01:59:40.182Z,3.33
2018-05-07T02:02:07.928Z,3.80
2018-05-07T02:04:35.504Z,3.17
2018-05-07T02:07:03.053Z,3.67
2018-05-07T02:09:30.609Z,3.53
2018-05-07T02:11:58.157Z,3.53
2018-05-07T02:14:25.708Z,3.47
2018-05-07T02:16:53.283Z,3.20
2018-05-07T02:19:20.924Z,3.50
2018-05-07T02:21:48.512Z,3.07
2018-05-07T02:24:16.068Z,3.00
2018-05-07T02:26:43.617Z,3.40
2018-05-07T02:29:11.199Z,4.00
2018-05-07T02:31:38.758Z,2.97
2018-05-07T02:34:06.304Z,2.80
2018-05-07T02:36:33.862Z,3.07
2018-05-07T02:39:01.459Z,2.63
2018-05-07T02:41:29.032Z,3.50
2018-05-07T02:43:56.592Z,3.57
2018-05-07T02:46:24.909Z,3.23
2018-05-07T02:48:52.463Z,3.37
2018-05-07T02:51:20.013Z,3.10
2018-05-07T02:53:47.584Z,2.93
2018-05-07T02:56:15.149Z,2.93
2018-05-07T02:58:42.704Z,3.47
2018-05-07T03:01:10.264Z,3.17
2018-05-07T03:03:37.818Z,3.53
2018-05-07T03:06:05.396Z,3.07
2018-05-07T03:08:32.944Z,3.57
2018-05-07T03:11:00.499Z,3.40
2018-05-07T03:13:28.047Z,3.03
2018-05-07T03:15:55.596Z,3.70
2018-05-07T03:18:23.173Z,4.13
2018-05-07T03:20:50.724Z,3.47
2018-05-07T03:23:18.279Z,3.50
2018-05-07T03:25:45.835Z,3.93
2018-05-07T03:28:13.384Z,3.40
2018-05-07T03:30:40.959Z,3.10
2018-05-07T03:33:08.536Z,3.43
2018-05-07T03:35:36.120Z,3.43
2018-05-07T03:38:03.676Z,3.00
2018-05-07T03:40:32.011Z,3.53
2018-05-07T03:42:59.596Z,3.50
2018-05-07T03:45:27.153Z,3.33
2018-05-07T03:47:54.704Z,3.40
2018-05-07T03:50:22.258Z,2.80
2018-05-07T03:52:49.808Z,3.00
2018-05-07T03:55:17.387Z,3.73
2018-05-07T03:57:44.940Z,3.17
2018-05-07T04:00:12.523Z,3.20
2018-05-07T04:02:40.080Z,3.57
2018-05-07T04:05:08.407Z,2.73
2018-05-07T04:07:36.819Z,2.90
2018-05-07T04:10:04.368Z,3.10
2018-05-07T04:12:31.948Z,3.03
2018-05-07T04:14:59.508Z,3.20
2018-05-07T04:17:40.564Z,3.27
2018-05-07T04:20:19.980Z,3.27
2018-05-07T04:22:59.371Z,3.30
2018-05-07T04:25:26.927Z,3.57
2018-05-07T04:27:54.480Z,3.33
2018-05-07T04:30:22.062Z,3.20
2018-05-07T04:32:49.619Z,2.83
2018-05-07T04:35:17.194Z,3.27
2018-05-07T04:37:44.747Z,2.87
2018-05-07T04:40:12.304Z,3.00
2018-05-07T04:42:39.862Z,3.43
2018-05-07T04:45:07.417Z,3.20
2018-05-07T04:47:34.968Z,3.10
2018-05-07T04:50:02.516Z,2.83
2018-05-07T04:52:30.068Z,3.00
2018-05-07T04:54:57.633Z,3.00
2018-05-07T04:57:25.185Z,3.30
2018-05-07T04:59:52.745Z,3.47
2018-05-07T05:02:20.445Z,2.83
2018-05-07T05:04:48.044Z,2.67
2018-05-07T05:07:15.619Z,3.70
2018-05-07T05:09:43.176Z,2.77
2018-05-07T05:12:10.728Z,2.90
2018-05-07T05:14:38.283Z,3.03
2018-05-07T05:17:05.865Z,3.00
2018-05-07T05:19:33.412Z,3.27
2018-05-07T05:22:00.963Z,3.00
2018-05-07T05:24:28.518Z,2.70
2018-05-07T05:26:56.844Z,2.63
2018-05-07T05:29:24.420Z,2.80
2018-05-07T05:31:51.973Z,2.90
2018-05-07T05:34:19.541Z,2.87
2018-05-07T05:36:47.102Z,2.63
2018-05-07T05:39:14.692Z,2.90
2018-05-07T05:41:42.279Z,2.40
2018-05-07T05:44:09.830Z,2.53
2018-05-07T05:46:37.379Z,2.50
2018-05-07T05:49:04.936Z,2.67
2018-05-07T05:51:32.493Z,2.70
2018-05-07T05:54:00.071Z,2.30
2018-05-07T05:56:27.686Z,2.50
2018-05-07T05:58:55.196Z,2.33
2018-05-07T06:01:22.744Z,2.03
2018-05-07T06:03:50.312Z,2.17
2018-05-07T06:06:17.913Z,2.30
2018-05-07T06:08:45.466Z,2.00
2018-05-07T06:11:13.789Z,2.13
2018-05-07T06:13:41.336Z,2.00
2018-05-07T06:16:08.884Z,1.90
2018-05-07T06:18:36.472Z,1.93
2018-05-07T06:21:04.020Z,2.07
2018-05-07T06:23:31.576Z,2.20
2018-05-07T06:25:59.137Z,1.97
2018-05-07T06:28:26.698Z,1.87
2018-05-07T06:30:54.271Z,2.07
2018-05-07T06:33:21.820Z,2.10
2018-05-07T06:35:49.376Z,1.87
2018-05-07T06:38:16.928Z,2.30
2018-05-07T06:40:44.481Z,2.87
2018-05-07T06:43:12.350Z,3.27
2018-05-07T06:45:39.970Z,3.87
2018-05-07T06:48:24.893Z,4.93
2018-05-07T06:50:53.216Z,4.87
2018-05-07T06:53:20.768Z,4.80
2018-05-07T06:55:48.324Z,4.83
2018-05-07T06:58:16.644Z,5.33
2018-05-07T07:00:44.216Z,5.10
2018-05-07T07:03:11.764Z,4.20
2018-05-07T07:05:39.324Z,4.10
2018-05-07T07:08:06.927Z,4.00
2018-05-07T07:10:34.459Z,3.93
2018-05-07T07:13:02.036Z,4.03
2018-05-07T07:15:29.594Z,4.20
2018-05-07T07:17:57.155Z,3.47
2018-05-07T07:20:24.708Z,3.70
2018-05-07T07:22:52.260Z,3.37
2018-05-07T07:25:19.837Z,3.40
2018-05-07T07:27:47.386Z,3.77
2018-05-07T07:30:14.936Z,3.37
2018-05-07T07:32:42.488Z,3.83
2018-05-07T07:35:10.048Z,4.10
2018-05-07T07:37:37.620Z,3.43
2018-05-07T07:40:05.173Z,3.93
2018-05-07T07:42:32.724Z,3.87
2018-05-07T07:45:00.272Z,3.53
2018-05-07T07:47:27.834Z,3.87
2018-05-07T07:49:55.416Z,4.23
2018-05-07T07:52:23.774Z,4.37
2018-05-07T07:54:51.312Z,5.07
2018-05-07T07:57:18.868Z,4.80
2018-05-07T07:59:46.422Z,4.80
2018-05-07T08:02:14.003Z,5.47
2018-05-07T08:04:41.551Z,5.03
2018-05-07T08:07:09.102Z,5.17
2018-05-07T08:09:36.660Z,4.77
2018-05-07T08:12:04.263Z,6.00
2018-05-07T08:14:31.823Z,5.47
2018-05-07T08:17:00.140Z,5.53
2018-05-07T08:19:27.700Z,5.80
2018-05-07T08:21:55.253Z,5.93
2018-05-07T08:24:22.808Z,5.20
2018-05-07T08:26:50.397Z,5.07
2018-05-07T08:29:17.947Z,5.23
2018-05-07T08:31:45.505Z,5.00
2018-05-07T08:34:13.061Z,4.83
2018-05-07T08:36:40.639Z,4.77
2018-05-07T08:39:08.216Z,4.90
2018-05-07T08:41:36.536Z,4.23
2018-05-07T08:44:04.084Z,4.53
2018-05-07T08:46:31.641Z,4.57
2018-05-07T08:48:59.192Z,3.70
2018-05-07T08:51:26.780Z,3.90
2018-05-07T08:53:54.331Z,4.63
2018-05-07T08:56:21.881Z,4.13
2018-05-07T08:58:49.435Z,4.00
2018-05-07T09:01:16.983Z,4.00
2018-05-07T09:03:44.556Z,4.10
2018-05-07T09:06:12.110Z,4.37
2018-05-07T09:08:39.664Z,3.17
2018-05-07T09:11:07.244Z,3.30
2018-05-07T09:13:34.807Z,3.37
2018-05-07T09:16:02.447Z,3.57
2018-05-07T09:18:29.976Z,3.30
2018-05-07T09:20:57.527Z,3.73
2018-05-07T09:23:25.081Z,3.50
2018-05-07T09:25:53.397Z,3.50
2018-05-07T09:28:21.420Z,3.27
2018-05-07T09:30:48.969Z,3.27
2018-05-07T09:33:16.523Z,2.87
2018-05-07T09:35:44.090Z,3.57
2018-05-07T09:38:11.644Z,3.07
2018-05-07T09:40:39.222Z,2.77
2018-05-07T09:43:06.812Z,2.57
2018-05-07T09:45:34.367Z,2.33
2018-05-07T09:48:01.916Z,2.67
2018-05-07T09:50:29.465Z,2.80
2018-05-07T09:52:57.020Z,2.67
2018-05-07T09:55:24.581Z,2.17
2018-05-07T09:58:07.988Z,2.30
2018-05-07T10:00:37.226Z,2.40
2018-05-07T10:03:04.774Z,2.17
2018-05-07T10:05:32.319Z,1.87
2018-05-07T10:07:59.868Z,2.07
2018-05-07T10:10:27.446Z,2.17
2018-05-07T10:12:55.020Z,2.00
2018-05-07T10:15:22.585Z,2.03
2018-05-07T10:17:50.169Z,1.80
2018-05-07T10:20:17.728Z,1.70
2018-05-07T10:22:45.280Z,1.70
2018-05-07T10:25:13.856Z,1.77
2018-05-07T10:27:41.415Z,1.60
2018-05-07T10:30:08.976Z,1.50
2018-05-07T10:32:36.532Z,1.43
2018-05-07T10:35:04.080Z,1.60
2018-05-07T10:37:31.659Z,1.60
2018-05-07T10:39:59.208Z,1.77
2018-05-07T10:42:26.757Z,1.60
2018-05-07T10:44:54.318Z,2.00
2018-05-07T10:47:21.872Z,1.47
2018-05-07T10:49:50.222Z,1.63
2018-05-07T10:52:17.776Z,1.70
2018-05-07T10:54:45.333Z,1.60
2018-05-07T10:57:12.888Z,1.70
2018-05-07T10:59:40.437Z,1.83
2018-05-07T11:02:08.016Z,1.60
2018-05-07T11:04:35.600Z,1.50
2018-05-07T11:07:03.148Z,1.27
2018-05-07T11:09:30.709Z,2.07
2018-05-07T11:11:58.262Z,1.60
2018-05-07T11:14:25.836Z,1.60
2018-05-07T11:16:53.383Z,1.40
2018-05-07T11:19:20.948Z,1.40
2018-05-07T11:21:48.537Z,1.27
2018-05-07T11:24:16.861Z,1.40
2018-05-07T11:26:44.447Z,1.40
2018-05-07T11:29:11.995Z,1.43
2018-05-07T11:31:39.555Z,1.10
2018-05-07T11:34:07.108Z,1.10
2018-05-07T11:36:34.672Z,1.30
2018-05-07T11:39:02.294Z,1.47
2018-05-07T11:41:29.829Z,1.37
2018-05-07T11:43:57.384Z,1.30
2018-05-07T11:46:25.702Z,1.30
2018-05-07T11:48:53.256Z,1.20
2018-05-07T11:51:20.837Z,1.10
2018-05-07T11:53:48.398Z,1.30
2018-05-07T11:56:16.005Z,1.37
2018-05-07T11:58:43.560Z,1.17
2018-05-07T12:01:11.109Z,1.00
2018-05-07T12:03:39.443Z,1.30
2018-05-07T12:06:06.995Z,1.10
2018-05-07T12:08:34.548Z,1.10
2018-05-07T12:11:02.098Z,1.20
2018-05-07T12:13:29.656Z,1.00
2018-05-07T12:15:57.459Z,1.40
2018-05-07T12:18:24.813Z,1.20
2018-05-07T12:20:52.371Z,1.10
2018-05-07T12:23:20.755Z,1.40
2018-05-07T12:25:48.296Z,1.80
2018-05-07T12:28:15.886Z,1.10
2018-05-07T12:30:43.440Z,1.30
2018-05-07T12:33:11.764Z,1.10
2018-05-07T12:35:39.315Z,1.27
2018-05-07T12:38:06.872Z,1.43
2018-05-07T12:40:34.451Z,1.30
2018-05-07T12:43:02.006Z,1.00
2018-05-07T12:45:29.564Z,1.20
2018-05-07T12:47:57.112Z,1.10
2018-05-07T12:50:24.680Z,1.10
2018-05-07T12:52:52.248Z,0.90
2018-05-07T12:55:19.805Z,1.00
2018-05-07T12:57:47.352Z,1.20
2018-05-07T13:00:14.909Z,0.70
2018-05-07T13:02:42.459Z,1.10
2018-05-07T13:05:10.032Z,1.00
2018-05-07T13:07:37.588Z,1.07
2018-05-07T13:10:05.151Z,1.13
2018-05-07T13:12:32.700Z,1.10
2018-05-07T13:15:00.250Z,1.00
2018-05-07T13:17:27.816Z,1.00
2018-05-07T13:19:55.372Z,1.13
2018-05-07T13:22:22.932Z,1.00
2018-05-07T13:24:51.321Z,1.13
2018-05-07T13:27:18.832Z,0.80
2018-05-07T13:29:46.417Z,1.10
2018-05-07T13:32:14.014Z,1.00
2018-05-07T13:34:41.539Z,1.00
2018-05-07T13:37:09.089Z,0.97
2018-05-07T13:39:36.638Z,1.30
2018-05-07T13:42:04.204Z,1.00
2018-05-07T13:44:31.756Z,1.17
2018-05-07T13:46:59.309Z,1.40
2018-05-07T13:49:26.865Z,0.90
2018-05-07T13:51:54.412Z,1.07
2018-05-07T13:54:21.988Z,0.90
2018-05-07T13:56:49.551Z,1.20
2018-05-07T13:59:17.103Z,1.00
2018-05-07T14:01:44.653Z,1.00
2018-05-07T14:04:12.208Z,1.03
2018-05-07T14:06:39.794Z,1.10
2018-05-07T14:09:07.356Z,1.10
2018-05-07T14:11:34.920Z,1.13
2018-05-07T14:14:02.480Z,1.00
2018-05-07T14:16:30.037Z,1.17
2018-05-07T14:18:57.612Z,1.10
2018-05-07T14:21:25.162Z,1.20
2018-05-07T14:23:52.720Z,1.10
2018-05-07T14:26:20.294Z,1.07
2018-05-07T14:28:48.622Z,1.10
2018-05-07T14:31:16.196Z,1.10
2018-05-07T14:33:43.750Z,1.20
2018-05-07T14:36:11.304Z,1.07
2018-05-07T14:38:38.938Z,1.20
2018-05-07T14:41:06.432Z,1.30
2018-05-07T14:43:34.012Z,1.07
2018-05-07T14:46:01.576Z,1.00
2018-05-07T14:48:29.904Z,1.10
2018-05-07T14:50:57.456Z,1.20
2018-05-07T14:53:25.016Z,1.13
2018-05-07T14:55:52.675Z,1.03
2018-05-07T14:58:20.169Z,1.10
2018-05-07T15:00:47.723Z,1.20
2018-05-07T15:03:15.272Z,1.10
2018-05-07T15:05:42.824Z,1.20
2018-05-07T15:08:10.392Z,1.10
2018-05-07T15:10:37.949Z,1.20
2018-05-07T15:13:05.535Z,1.30
2018-05-07T15:15:33.989Z,1.10
2018-05-07T15:18:01.537Z,1.20
2018-05-07T15:20:29.084Z,1.30
2018-05-07T15:22:56.639Z,0.90
2018-05-07T15:25:24.216Z,1.10
2018-05-07T15:27:51.765Z,1.20
2018-05-07T15:30:19.324Z,1.00
2018-05-07T15:32:46.874Z,1.10
2018-05-07T15:35:14.431Z,1.70
2018-05-07T15:37:42.012Z,1.40
2018-05-07T15:40:09.564Z,1.10
2018-05-07T15:42:37.116Z,1.20
2018-05-07T15:45:04.664Z,1.07
2018-05-07T15:47:32.220Z,1.00
2018-05-07T15:49:59.800Z,1.30
2018-05-07T15:52:27.352Z,1.13
2018-05-07T15:54:54.909Z,1.40
2018-05-07T15:57:23.260Z,1.37
2018-05-07T15:59:50.808Z,1.00
2018-05-07T16:02:18.388Z,1.20
2018-05-07T16:04:45.936Z,1.40
2018-05-07T16:07:13.492Z,1.00
2018-05-07T16:09:41.047Z,1.30
2018-05-07T16:12:08.601Z,1.53
2018-05-07T16:14:36.188Z,1.10
2018-05-07T16:17:03.765Z,1.10
2018-05-07T16:19:31.368Z,1.37
2018-05-07T16:21:58.975Z,1.00
2018-05-07T16:24:26.501Z,1.10
2018-05-07T16:26:54.085Z,1.10
2018-05-07T16:29:21.641Z,1.20
2018-05-07T16:31:49.204Z,1.00
2018-05-07T16:34:16.776Z,1.40
2018-05-07T16:36:44.329Z,1.07
2018-05-07T16:39:11.916Z,1.13
2018-05-07T16:41:39.510Z,1.33
2018-05-07T16:44:07.070Z,1.03
2018-05-07T16:46:34.626Z,1.10
2018-05-07T16:49:02.241Z,1.20
2018-05-07T16:51:29.800Z,1.20
2018-05-07T16:53:58.120Z,1.10
2018-05-07T16:56:25.678Z,1.10
2018-05-07T16:58:53.279Z,1.00
2018-05-07T17:01:20.833Z,1.00
2018-05-07T17:03:48.385Z,0.87
2018-05-07T17:06:15.944Z,1.13
2018-05-07T17:08:43.500Z,1.10
2018-05-07T17:11:11.053Z,1.07
2018-05-07T17:13:38.605Z,1.20
2018-05-07T17:16:06.165Z,1.20
2018-05-07T17:18:33.720Z,1.20
2018-05-07T17:21:01.268Z,1.33
2018-05-07T17:23:28.820Z,1.20
2018-05-07T17:25:56.425Z,1.47
2018-05-07T17:28:24.752Z,1.20
2018-05-07T17:30:52.312Z,1.30
2018-05-07T17:33:19.864Z,1.30
2018-05-07T17:35:47.422Z,1.10
2018-05-07T17:38:15.005Z,1.20
2018-05-07T17:40:42.564Z,1.30
2018-05-07T17:43:10.112Z,1.50
2018-05-07T17:46:04.368Z,1.23
2018-05-07T17:48:43.639Z,1.10
2018-05-07T17:51:11.356Z,1.10
2018-05-07T17:53:38.802Z,1.10
2018-05-07T17:56:06.362Z,1.50
2018-05-07T17:58:33.919Z,1.33
2018-05-07T18:01:01.472Z,1.20
2018-05-07T18:03:29.045Z,1.23
2018-05-07T18:05:56.595Z,1.50
2018-05-07T18:08:24.144Z,1.17
2018-05-07T18:10:51.736Z,1.50
2018-05-07T18:13:19.278Z,1.20
2018-05-07T18:15:46.860Z,1.60
2018-05-07T18:18:14.418Z,1.20
2018-05-07T18:20:41.969Z,1.40
2018-05-07T18:23:09.520Z,1.27
2018-05-07T18:25:37.076Z,1.43
2018-05-07T18:28:04.644Z,1.40
2018-05-07T18:30:32.193Z,1.60
2018-05-07T18:32:59.757Z,1.27
2018-05-07T18:35:27.312Z,1.20
2018-05-07T18:37:54.881Z,1.30
2018-05-07T18:40:22.469Z,1.20
2018-05-07T18:42:50.030Z,1.30
2018-05-07T18:45:17.601Z,1.20
2018-05-07T18:47:45.932Z,1.20
2018-05-07T18:50:13.493Z,1.40
2018-05-07T18:52:41.068Z,1.50
2018-05-07T18:55:08.616Z,1.60
2018-05-07T18:57:36.181Z,1.43
2018-05-07T19:00:03.734Z,1.30
2018-05-07T19:02:31.296Z,1.40
2018-05-07T19:04:58.884Z,1.40
2018-05-07T19:07:27.206Z,1.33
2018-05-07T19:09:54.761Z,1.10
2018-05-07T19:12:22.329Z,1.50
2018-05-07T19:14:49.880Z,1.10
2018-05-07T19:17:17.448Z,1.17
2018-05-07T19:19:45.004Z,1.33
2018-05-07T19:22:12.557Z,1.30
2018-05-07T19:24:40.110Z,1.47
2018-05-07T19:27:07.660Z,1.10
2018-05-07T19:29:35.235Z,1.10
2018-05-07T19:32:02.790Z,1.43
2018-05-07T19:34:30.347Z,1.20
2018-05-07T19:36:57.904Z,1.30
2018-05-07T19:39:25.630Z,1.43
2018-05-07T19:41:53.218Z,1.50
2018-05-07T19:44:20.768Z,1.30
2018-05-07T19:46:48.324Z,1.60
2018-05-07T19:49:15.920Z,1.40
2018-05-07T19:51:43.453Z,1.40
2018-05-07T19:54:11.032Z,1.40
2018-05-07T19:56:38.584Z,1.30
2018-05-07T19:59:06.134Z,1.70
2018-05-07T20:01:33.687Z,1.43
2018-05-07T20:04:01.298Z,1.40
2018-05-07T20:06:28.796Z,1.20
2018-05-07T20:08:56.293Z,1.53
2018-05-07T20:11:23.797Z,1.23
2018-05-07T20:13:51.309Z,1.47
2018-05-07T20:16:19.162Z,1.30
2018-05-07T20:18:46.686Z,1.57
2018-05-07T20:21:14.186Z,1.33
2018-05-07T20:23:41.689Z,1.40
2018-05-07T20:26:09.195Z,1.53
2018-05-07T20:28:36.701Z,1.60
2018-05-07T20:31:04.267Z,1.40
2018-05-07T20:33:31.778Z,1.33
2018-05-07T20:35:59.290Z,1.43
2018-05-07T20:38:26.801Z,1.50
2018-05-07T20:40:55.077Z,1.40
2018-05-07T20:43:22.612Z,1.60
2018-05-07T20:45:50.117Z,1.40
2018-05-07T20:48:17.635Z,1.40
2018-05-07T20:50:45.133Z,1.60
2018-05-07T20:53:12.637Z,1.53
2018-05-07T20:55:40.154Z,1.47
2018-05-07T20:58:07.656Z,1.30
2018-05-07T21:00:35.161Z,1.50
2018-05-07T21:03:02.754Z,1.70
2018-05-07T21:05:30.341Z,1.60
2018-05-07T21:07:57.845Z,1.47
2018-05-07T21:10:25.353Z,1.60
2018-05-07T21:12:52.869Z,1.93
2018-05-07T21:15:20.373Z,1.50
2018-05-07T21:17:47.898Z,1.60
2018-05-07T21:20:15.397Z,1.63
2018-05-07T21:22:43.670Z,1.70
2018-05-07T21:25:11.181Z,1.90
2018-05-07T21:27:38.685Z,1.53
2018-05-07T21:30:07.097Z,1.40
2018-05-07T21:32:34.621Z,1.93
2018-05-07T21:35:02.129Z,1.80
2018-05-07T21:37:29.649Z,2.00
2018-05-07T21:39:57.162Z,1.60
2018-05-07T21:42:24.696Z,2.00
2018-05-07T21:44:52.205Z,1.97
2018-05-07T21:47:19.720Z,1.73
2018-05-07T21:49:47.231Z,1.80
2018-05-07T21:52:14.737Z,2.00
2018-05-07T21:54:42.257Z,1.70
2018-05-07T21:57:09.765Z,1.60
2018-05-07T21:59:37.274Z,1.73
2018-05-07T22:02:04.779Z,1.93
2018-05-07T22:04:32.281Z,1.90
2018-05-07T22:06:59.814Z,1.70
2018-05-07T22:09:27.317Z,1.80
2018-05-07T22:11:54.817Z,1.77
2018-05-07T22:14:22.319Z,1.97
2018-05-07T22:16:49.822Z,2.00
2018-05-07T22:19:17.353Z,2.00
2018-05-07T22:21:44.857Z,1.70
2018-05-07T22:24:12.361Z,2.23
2018-05-07T22:26:39.893Z,2.03
2018-05-07T22:29:07.409Z,2.20
2018-05-07T22:31:34.916Z,2.10
2018-05-07T22:34:02.449Z,2.70
2018-05-07T22:36:29.953Z,2.27
2018-05-07T22:38:57.526Z,1.90
2018-05-07T22:41:25.136Z,2.20
2018-05-07T22:43:52.641Z,1.97
2018-05-07T22:46:20.227Z,1.87
2018-05-07T22:48:47.666Z,1.80
2018-05-07T22:51:15.172Z,2.47
2018-05-07T22:53:42.676Z,2.13
2018-05-07T22:56:10.186Z,2.37
2018-05-07T22:58:37.689Z,2.30
2018-05-07T23:01:05.209Z,2.00
2018-05-07T23:03:32.710Z,2.13
2018-05-07T23:06:00.217Z,2.60
2018-05-07T23:08:27.727Z,2.10
2018-05-07T23:10:55.245Z,2.37
2018-05-07T23:13:22.763Z,2.40
2018-05-07T23:15:51.028Z,2.33
2018-05-07T23:18:18.580Z,2.63
2018-05-07T23:20:46.081Z,2.60
2018-05-07T23:23:13.585Z,2.17
2018-05-07T23:25:41.120Z,2.20
2018-05-07T23:28:08.627Z,2.30
2018-05-07T23:30:36.145Z,2.40
2018-05-07T23:33:03.649Z,2.30
2018-05-07T23:35:31.153Z,2.50
2018-05-07T23:37:58.685Z,2.47
2018-05-07T23:40:26.189Z,2.10
2018-05-07T23:42:53.692Z,2.10
2018-05-07T23:45:23.936Z,2.23
2018-05-07T23:47:51.438Z,2.93
2018-05-07T23:50:18.965Z,2.27
2018-05-07T23:52:46.474Z,2.63
2018-05-07T23:55:13.973Z,2.70
2018-05-07T23:57:41.477Z,2.30
